sensor_id;sensor_type;location;lat;lon;timestamp;temperature;humidity
7720;DHT22;3902;49.474;8.616;2023-04-29T00:00:46;14.50;99.90
7720;DHT22;3902;49.474;8.616;2023-04-29T00:03:11;14.50;99.90
7720;DHT22;3902;49.474;8.616;2023-04-29T00:05:37;14.50;99.90
7720;DHT22;3902;49.474;8.616;2023-04-29T00:08:02;14.50;99.90
7720;DHT22;3902;49.474;8.616;2023-04-29T00:10:29;14.60;99.90
7720;DHT22;3902;49.474;8.616;2023-04-29T00:12:54;14.60;99.90
7720;DHT22;3902;49.474;8.616;2023-04-29T00:15:20;14.60;99.90
7720;DHT22;3902;49.474;8.616;2023-04-29T00:17:45;14.60;99.90
7720;DHT22;3902;49.474;8.616;2023-04-29T00:20:11;14.60;99.90
7720;DHT22;3902;49.474;8.616;2023-04-29T00:22:37;14.60;99.90
7720;DHT22;3902;49.474;8.616;2023-04-29T00:25:03;14.60;99.90
7720;DHT22;3902;49.474;8.616;2023-04-29T00:27:29;14.60;99.90
7720;DHT22;3902;49.474;8.616;2023-04-29T00:29:55;14.50;99.90
7720;DHT22;3902;49.474;8.616;2023-04-29T00:32:21;14.60;99.90
7720;DHT22;3902;49.474;8.616;2023-04-29T00:34:47;14.60;99.90
7720;DHT22;3902;49.474;8.616;2023-04-29T00:37:12;14.60;99.90
7720;DHT22;3902;49.474;8.616;2023-04-29T00:39:38;14.60;99.90
7720;DHT22;3902;49.474;8.616;2023-04-29T00:42:03;14.50;99.90
7720;DHT22;3902;49.474;8.616;2023-04-29T00:44:29;14.50;99.90
7720;DHT22;3902;49.474;8.616;2023-04-29T00:46:54;14.60;99.90
7720;DHT22;3902;49.474;8.616;2023-04-29T00:49:20;14.60;99.90
7720;DHT22;3902;49.474;8.616;2023-04-29T00:51:46;14.50;99.90
7720;DHT22;3902;49.474;8.616;2023-04-29T00:54:12;14.50;99.90
7720;DHT22;3902;49.474;8.616;2023-04-29T00:56:39;14.50;99.90
7720;DHT22;3902;49.474;8.616;2023-04-29T00:59:08;14.50;99.90
7720;DHT22;3902;49.474;8.616;2023-04-29T01:01:35;14.60;99.90
7720;DHT22;3902;49.474;8.616;2023-04-29T01:04:01;14.50;99.90
7720;DHT22;3902;49.474;8.616;2023-04-29T01:06:36;14.50;99.90
7720;DHT22;3902;49.474;8.616;2023-04-29T01:12:20;14.50;99.90
7720;DHT22;3902;49.474;8.616;2023-04-29T01:14:52;14.50;99.90
7720;DHT22;3902;49.474;8.616;2023-04-29T01:17:21;14.50;99.90
7720;DHT22;3902;49.474;8.616;2023-04-29T01:19:53;14.50;99.90
7720;DHT22;3902;49.474;8.616;2023-04-29T01:22:20;14.40;99.90
7720;DHT22;3902;49.474;8.616;2023-04-29T01:24:46;14.40;99.90
7720;DHT22;3902;49.474;8.616;2023-04-29T01:27:32;14.30;99.90
7720;DHT22;3902;49.474;8.616;2023-04-29T01:32:45;14.30;99.90
7720;DHT22;3902;49.474;8.616;2023-04-29T01:38:35;14.20;99.90
7720;DHT22;3902;49.474;8.616;2023-04-29T01:41:17;14.20;99.90
7720;DHT22;3902;49.474;8.616;2023-04-29T01:43:46;14.20;99.90
7720;DHT22;3902;49.474;8.616;2023-04-29T01:46:16;14.20;99.90
7720;DHT22;3902;49.474;8.616;2023-04-29T01:48:44;14.20;99.90
7720;DHT22;3902;49.474;8.616;2023-04-29T01:51:09;14.20;99.90
7720;DHT22;3902;49.474;8.616;2023-04-29T01:53:35;14.20;99.90
7720;DHT22;3902;49.474;8.616;2023-04-29T01:56:01;14.20;99.90
7720;DHT22;3902;49.474;8.616;2023-04-29T01:58:26;14.20;99.90
7720;DHT22;3902;49.474;8.616;2023-04-29T02:00:53;14.30;99.90
7720;DHT22;3902;49.474;8.616;2023-04-29T02:03:19;14.20;99.90
7720;DHT22;3902;49.474;8.616;2023-04-29T02:05:44;14.30;99.90
7720;DHT22;3902;49.474;8.616;2023-04-29T02:08:10;14.30;99.90
7720;DHT22;3902;49.474;8.616;2023-04-29T02:10:35;14.30;99.90
7720;DHT22;3902;49.474;8.616;2023-04-29T02:13:01;14.30;99.90
7720;DHT22;3902;49.474;8.616;2023-04-29T02:15:27;14.30;99.90
7720;DHT22;3902;49.474;8.616;2023-04-29T02:17:53;14.30;99.90
7720;DHT22;3902;49.474;8.616;2023-04-29T02:20:19;14.30;99.90
7720;DHT22;3902;49.474;8.616;2023-04-29T02:22:44;14.30;99.90
7720;DHT22;3902;49.474;8.616;2023-04-29T02:25:10;14.30;99.90
7720;DHT22;3902;49.474;8.616;2023-04-29T02:27:36;14.30;99.90
7720;DHT22;3902;49.474;8.616;2023-04-29T02:30:01;14.30;99.90
7720;DHT22;3902;49.474;8.616;2023-04-29T02:32:29;14.30;99.90
7720;DHT22;3902;49.474;8.616;2023-04-29T02:34:54;14.30;99.90
7720;DHT22;3902;49.474;8.616;2023-04-29T02:37:20;14.30;99.90
7720;DHT22;3902;49.474;8.616;2023-04-29T02:39:46;14.30;99.90
7720;DHT22;3902;49.474;8.616;2023-04-29T02:42:11;14.30;99.90
7720;DHT22;3902;49.474;8.616;2023-04-29T02:44:37;14.30;99.90
7720;DHT22;3902;49.474;8.616;2023-04-29T02:47:03;14.30;99.90
7720;DHT22;3902;49.474;8.616;2023-04-29T02:49:28;14.30;99.90
7720;DHT22;3902;49.474;8.616;2023-04-29T02:51:54;14.30;99.90
7720;DHT22;3902;49.474;8.616;2023-04-29T02:54:19;14.30;99.90
7720;DHT22;3902;49.474;8.616;2023-04-29T02:56:45;14.30;99.90
7720;DHT22;3902;49.474;8.616;2023-04-29T02:59:11;14.30;99.90
7720;DHT22;3902;49.474;8.616;2023-04-29T03:01:36;14.20;99.90
7720;DHT22;3902;49.474;8.616;2023-04-29T03:04:03;14.20;99.90
7720;DHT22;3902;49.474;8.616;2023-04-29T03:06:29;14.20;99.90
7720;DHT22;3902;49.474;8.616;2023-04-29T03:08:55;14.10;99.90
7720;DHT22;3902;49.474;8.616;2023-04-29T03:11:21;14.10;99.90
7720;DHT22;3902;49.474;8.616;2023-04-29T03:13:49;14.10;99.90
7720;DHT22;3902;49.474;8.616;2023-04-29T03:16:15;14.00;99.90
7720;DHT22;3902;49.474;8.616;2023-04-29T03:18:41;14.00;99.90
7720;DHT22;3902;49.474;8.616;2023-04-29T03:21:07;14.00;99.90
7720;DHT22;3902;49.474;8.616;2023-04-29T03:23:32;14.00;99.90
7720;DHT22;3902;49.474;8.616;2023-04-29T03:25:58;13.90;99.90
7720;DHT22;3902;49.474;8.616;2023-04-29T03:28:24;13.90;99.90
7720;DHT22;3902;49.474;8.616;2023-04-29T03:30:50;14.00;99.90
7720;DHT22;3902;49.474;8.616;2023-04-29T03:33:15;13.90;99.90
7720;DHT22;3902;49.474;8.616;2023-04-29T03:35:41;13.90;99.90
7720;DHT22;3902;49.474;8.616;2023-04-29T03:38:07;13.90;99.90
7720;DHT22;3902;49.474;8.616;2023-04-29T03:40:32;13.90;99.90
7720;DHT22;3902;49.474;8.616;2023-04-29T03:42:58;13.90;99.90
7720;DHT22;3902;49.474;8.616;2023-04-29T03:45:25;13.90;99.90
7720;DHT22;3902;49.474;8.616;2023-04-29T03:47:50;13.90;99.90
7720;DHT22;3902;49.474;8.616;2023-04-29T03:50:17;13.90;99.90
7720;DHT22;3902;49.474;8.616;2023-04-29T03:52:43;13.80;99.90
7720;DHT22;3902;49.474;8.616;2023-04-29T03:55:08;13.80;99.90
7720;DHT22;3902;49.474;8.616;2023-04-29T03:57:34;13.80;99.90
7720;DHT22;3902;49.474;8.616;2023-04-29T04:00:00;13.80;99.90
7720;DHT22;3902;49.474;8.616;2023-04-29T04:02:25;13.80;99.90
7720;DHT22;3902;49.474;8.616;2023-04-29T04:04:51;13.80;99.90
7720;DHT22;3902;49.474;8.616;2023-04-29T04:07:19;13.80;99.90
7720;DHT22;3902;49.474;8.616;2023-04-29T04:09:45;13.80;99.90
7720;DHT22;3902;49.474;8.616;2023-04-29T04:12:10;13.80;99.90
7720;DHT22;3902;49.474;8.616;2023-04-29T04:14:36;13.80;99.90
7720;DHT22;3902;49.474;8.616;2023-04-29T04:17:02;13.80;99.90
7720;DHT22;3902;49.474;8.616;2023-04-29T04:19:29;13.70;99.90
7720;DHT22;3902;49.474;8.616;2023-04-29T04:21:55;13.70;99.90
7720;DHT22;3902;49.474;8.616;2023-04-29T04:24:20;13.70;99.90
7720;DHT22;3902;49.474;8.616;2023-04-29T04:26:47;13.70;99.90
7720;DHT22;3902;49.474;8.616;2023-04-29T04:29:12;13.70;99.90
7720;DHT22;3902;49.474;8.616;2023-04-29T04:31:38;13.70;99.90
7720;DHT22;3902;49.474;8.616;2023-04-29T04:34:03;13.70;99.90
7720;DHT22;3902;49.474;8.616;2023-04-29T04:36:29;13.70;99.90
7720;DHT22;3902;49.474;8.616;2023-04-29T04:38:54;13.70;99.90
7720;DHT22;3902;49.474;8.616;2023-04-29T04:41:20;13.70;99.90
7720;DHT22;3902;49.474;8.616;2023-04-29T04:43:45;13.70;99.90
7720;DHT22;3902;49.474;8.616;2023-04-29T04:46:15;13.70;99.90
7720;DHT22;3902;49.474;8.616;2023-04-29T04:48:41;13.70;99.90
7720;DHT22;3902;49.474;8.616;2023-04-29T04:51:08;13.70;99.90
7720;DHT22;3902;49.474;8.616;2023-04-29T04:53:34;13.70;99.90
7720;DHT22;3902;49.474;8.616;2023-04-29T04:56:00;13.70;99.90
7720;DHT22;3902;49.474;8.616;2023-04-29T04:58:26;13.80;99.90
7720;DHT22;3902;49.474;8.616;2023-04-29T05:00:52;13.80;99.90
7720;DHT22;3902;49.474;8.616;2023-04-29T05:03:17;13.80;99.90
7720;DHT22;3902;49.474;8.616;2023-04-29T05:05:43;13.80;99.90
7720;DHT22;3902;49.474;8.616;2023-04-29T05:08:08;13.80;99.90
7720;DHT22;3902;49.474;8.616;2023-04-29T05:10:37;13.80;99.90
7720;DHT22;3902;49.474;8.616;2023-04-29T05:13:02;13.80;99.90
7720;DHT22;3902;49.474;8.616;2023-04-29T05:15:28;13.80;99.90
7720;DHT22;3902;49.474;8.616;2023-04-29T05:17:54;13.80;99.90
7720;DHT22;3902;49.474;8.616;2023-04-29T05:20:19;13.80;99.90
7720;DHT22;3902;49.474;8.616;2023-04-29T05:22:45;13.80;99.90
7720;DHT22;3902;49.474;8.616;2023-04-29T05:25:11;13.80;99.90
7720;DHT22;3902;49.474;8.616;2023-04-29T05:27:36;13.80;99.90
7720;DHT22;3902;49.474;8.616;2023-04-29T05:30:03;13.80;99.90
7720;DHT22;3902;49.474;8.616;2023-04-29T05:32:28;13.80;99.90
7720;DHT22;3902;49.474;8.616;2023-04-29T05:34:54;13.90;99.90
7720;DHT22;3902;49.474;8.616;2023-04-29T05:37:19;13.80;99.90
7720;DHT22;3902;49.474;8.616;2023-04-29T05:39:45;13.90;99.90
7720;DHT22;3902;49.474;8.616;2023-04-29T05:42:10;13.90;99.90
7720;DHT22;3902;49.474;8.616;2023-04-29T05:44:36;13.90;99.90
7720;DHT22;3902;49.474;8.616;2023-04-29T05:47:01;13.90;99.90
7720;DHT22;3902;49.474;8.616;2023-04-29T05:49:27;13.90;99.90
7720;DHT22;3902;49.474;8.616;2023-04-29T05:51:52;13.90;99.90
7720;DHT22;3902;49.474;8.616;2023-04-29T05:54:18;13.90;99.90
7720;DHT22;3902;49.474;8.616;2023-04-29T05:56:43;13.90;99.90
7720;DHT22;3902;49.474;8.616;2023-04-29T05:59:09;13.90;99.90
7720;DHT22;3902;49.474;8.616;2023-04-29T06:01:34;13.90;99.90
7720;DHT22;3902;49.474;8.616;2023-04-29T06:04:00;13.90;99.90
7720;DHT22;3902;49.474;8.616;2023-04-29T06:06:25;14.00;99.90
7720;DHT22;3902;49.474;8.616;2023-04-29T06:08:51;13.90;99.90
7720;DHT22;3902;49.474;8.616;2023-04-29T06:11:17;13.90;99.90
7720;DHT22;3902;49.474;8.616;2023-04-29T06:13:43;14.00;99.90
7720;DHT22;3902;49.474;8.616;2023-04-29T06:16:09;13.90;99.90
7720;DHT22;3902;49.474;8.616;2023-04-29T06:18:35;14.00;99.90
7720;DHT22;3902;49.474;8.616;2023-04-29T06:21:02;14.00;99.90
7720;DHT22;3902;49.474;8.616;2023-04-29T06:23:28;14.00;99.90
7720;DHT22;3902;49.474;8.616;2023-04-29T06:25:53;14.00;99.90
7720;DHT22;3902;49.474;8.616;2023-04-29T06:28:19;14.00;99.90
7720;DHT22;3902;49.474;8.616;2023-04-29T06:30:45;14.00;99.90
7720;DHT22;3902;49.474;8.616;2023-04-29T06:33:11;14.00;99.90
7720;DHT22;3902;49.474;8.616;2023-04-29T06:35:40;14.00;99.90
7720;DHT22;3902;49.474;8.616;2023-04-29T06:38:06;14.00;99.90
7720;DHT22;3902;49.474;8.616;2023-04-29T06:40:33;14.00;99.90
7720;DHT22;3902;49.474;8.616;2023-04-29T06:42:58;14.00;99.90
7720;DHT22;3902;49.474;8.616;2023-04-29T06:45:24;14.00;99.90
7720;DHT22;3902;49.474;8.616;2023-04-29T06:47:50;14.00;99.90
7720;DHT22;3902;49.474;8.616;2023-04-29T06:50:15;14.00;99.90
7720;DHT22;3902;49.474;8.616;2023-04-29T06:52:41;14.00;99.90
7720;DHT22;3902;49.474;8.616;2023-04-29T06:55:07;14.00;99.90
7720;DHT22;3902;49.474;8.616;2023-04-29T06:57:32;14.10;99.90
7720;DHT22;3902;49.474;8.616;2023-04-29T06:59:58;14.00;99.90
7720;DHT22;3902;49.474;8.616;2023-04-29T07:02:23;14.10;99.90
7720;DHT22;3902;49.474;8.616;2023-04-29T07:04:49;14.10;99.90
7720;DHT22;3902;49.474;8.616;2023-04-29T07:07:15;14.10;99.90
7720;DHT22;3902;49.474;8.616;2023-04-29T07:09:41;14.10;99.90
7720;DHT22;3902;49.474;8.616;2023-04-29T07:12:06;14.10;99.90
7720;DHT22;3902;49.474;8.616;2023-04-29T07:14:32;14.20;99.90
7720;DHT22;3902;49.474;8.616;2023-04-29T07:16:57;14.20;99.90
7720;DHT22;3902;49.474;8.616;2023-04-29T07:19:23;14.30;99.90
7720;DHT22;3902;49.474;8.616;2023-04-29T07:21:48;14.30;99.90
7720;DHT22;3902;49.474;8.616;2023-04-29T07:24:14;14.30;99.90
7720;DHT22;3902;49.474;8.616;2023-04-29T07:26:42;14.30;99.90
7720;DHT22;3902;49.474;8.616;2023-04-29T07:29:09;14.30;99.90
7720;DHT22;3902;49.474;8.616;2023-04-29T07:31:35;14.30;99.90
7720;DHT22;3902;49.474;8.616;2023-04-29T07:34:00;14.20;99.90
7720;DHT22;3902;49.474;8.616;2023-04-29T07:36:26;14.30;99.90
7720;DHT22;3902;49.474;8.616;2023-04-29T07:38:53;14.20;99.90
7720;DHT22;3902;49.474;8.616;2023-04-29T07:41:18;14.20;99.90
7720;DHT22;3902;49.474;8.616;2023-04-29T07:43:44;14.20;99.90
7720;DHT22;3902;49.474;8.616;2023-04-29T07:46:09;14.30;99.90
7720;DHT22;3902;49.474;8.616;2023-04-29T07:48:37;14.20;99.90
7720;DHT22;3902;49.474;8.616;2023-04-29T07:51:04;14.20;99.90
7720;DHT22;3902;49.474;8.616;2023-04-29T07:53:29;14.30;99.90
7720;DHT22;3902;49.474;8.616;2023-04-29T07:55:55;14.20;99.90
7720;DHT22;3902;49.474;8.616;2023-04-29T07:58:21;14.10;99.90
7720;DHT22;3902;49.474;8.616;2023-04-29T08:00:46;14.10;99.90
7720;DHT22;3902;49.474;8.616;2023-04-29T08:03:12;14.20;99.90
7720;DHT22;3902;49.474;8.616;2023-04-29T08:05:38;14.10;99.90
7720;DHT22;3902;49.474;8.616;2023-04-29T08:08:03;14.10;99.90
7720;DHT22;3902;49.474;8.616;2023-04-29T08:10:29;14.10;99.90
7720;DHT22;3902;49.474;8.616;2023-04-29T08:12:55;14.10;99.90
7720;DHT22;3902;49.474;8.616;2023-04-29T08:15:21;14.20;99.90
7720;DHT22;3902;49.474;8.616;2023-04-29T08:17:46;14.20;99.90
7720;DHT22;3902;49.474;8.616;2023-04-29T08:20:12;14.10;99.90
7720;DHT22;3902;49.474;8.616;2023-04-29T08:22:37;14.10;99.90
7720;DHT22;3902;49.474;8.616;2023-04-29T08:25:03;14.20;99.90
7720;DHT22;3902;49.474;8.616;2023-04-29T08:27:30;14.00;99.90
7720;DHT22;3902;49.474;8.616;2023-04-29T08:29:55;14.10;99.90
7720;DHT22;3902;49.474;8.616;2023-04-29T08:32:21;14.10;99.90
7720;DHT22;3902;49.474;8.616;2023-04-29T08:34:47;14.00;99.90
7720;DHT22;3902;49.474;8.616;2023-04-29T08:37:13;14.10;99.90
7720;DHT22;3902;49.474;8.616;2023-04-29T08:39:39;14.10;99.90
7720;DHT22;3902;49.474;8.616;2023-04-29T08:42:10;14.10;99.90
7720;DHT22;3902;49.474;8.616;2023-04-29T08:44:36;14.20;99.90
7720;DHT22;3902;49.474;8.616;2023-04-29T08:47:02;14.30;99.90
7720;DHT22;3902;49.474;8.616;2023-04-29T08:49:29;14.30;99.90
7720;DHT22;3902;49.474;8.616;2023-04-29T08:51:56;14.30;99.90
7720;DHT22;3902;49.474;8.616;2023-04-29T08:54:22;14.40;99.90
7720;DHT22;3902;49.474;8.616;2023-04-29T08:56:48;14.40;99.90
7720;DHT22;3902;49.474;8.616;2023-04-29T08:59:17;14.40;99.90
7720;DHT22;3902;49.474;8.616;2023-04-29T09:01:43;14.50;99.90
7720;DHT22;3902;49.474;8.616;2023-04-29T09:04:27;14.50;99.90
7720;DHT22;3902;49.474;8.616;2023-04-29T09:06:55;14.50;99.90
7720;DHT22;3902;49.474;8.616;2023-04-29T09:09:23;14.50;99.90
7720;DHT22;3902;49.474;8.616;2023-04-29T09:11:49;14.50;99.90
7720;DHT22;3902;49.474;8.616;2023-04-29T09:14:15;14.60;99.90
7720;DHT22;3902;49.474;8.616;2023-04-29T09:16:40;14.60;99.90
7720;DHT22;3902;49.474;8.616;2023-04-29T09:19:06;14.60;99.90
7720;DHT22;3902;49.474;8.616;2023-04-29T09:21:32;14.70;99.90
7720;DHT22;3902;49.474;8.616;2023-04-29T09:24:01;14.80;99.90
7720;DHT22;3902;49.474;8.616;2023-04-29T09:26:39;14.80;99.90
7720;DHT22;3902;49.474;8.616;2023-04-29T09:29:10;14.90;99.90
7720;DHT22;3902;49.474;8.616;2023-04-29T09:31:38;15.00;99.90
7720;DHT22;3902;49.474;8.616;2023-04-29T09:34:03;15.00;99.90
7720;DHT22;3902;49.474;8.616;2023-04-29T09:36:50;15.00;99.90
7720;DHT22;3902;49.474;8.616;2023-04-29T09:39:22;14.90;99.90
7720;DHT22;3902;49.474;8.616;2023-04-29T09:44:29;14.90;99.90
7720;DHT22;3902;49.474;8.616;2023-04-29T09:47:04;14.90;99.90
7720;DHT22;3902;49.474;8.616;2023-04-29T09:49:31;14.90;99.90
7720;DHT22;3902;49.474;8.616;2023-04-29T09:51:59;14.90;99.90
7720;DHT22;3902;49.474;8.616;2023-04-29T09:54:28;14.90;99.90
7720;DHT22;3902;49.474;8.616;2023-04-29T09:56:56;15.00;99.90
7720;DHT22;3902;49.474;8.616;2023-04-29T09:59:22;15.10;99.90
7720;DHT22;3902;49.474;8.616;2023-04-29T10:01:51;15.10;99.90
7720;DHT22;3902;49.474;8.616;2023-04-29T10:04:18;15.20;99.90
7720;DHT22;3902;49.474;8.616;2023-04-29T10:06:48;15.40;99.90
7720;DHT22;3902;49.474;8.616;2023-04-29T10:09:14;15.50;99.90
7720;DHT22;3902;49.474;8.616;2023-04-29T10:11:41;15.70;99.90
7720;DHT22;3902;49.474;8.616;2023-04-29T10:14:11;15.80;99.90
7720;DHT22;3902;49.474;8.616;2023-04-29T10:16:49;15.90;99.90
7720;DHT22;3902;49.474;8.616;2023-04-29T10:22:11;16.00;99.90
7720;DHT22;3902;49.474;8.616;2023-04-29T10:24:41;15.90;99.90
7720;DHT22;3902;49.474;8.616;2023-04-29T10:27:09;16.00;99.90
7720;DHT22;3902;49.474;8.616;2023-04-29T10:29:37;16.00;99.90
7720;DHT22;3902;49.474;8.616;2023-04-29T10:32:05;15.90;99.90
7720;DHT22;3902;49.474;8.616;2023-04-29T10:34:32;15.80;99.90
7720;DHT22;3902;49.474;8.616;2023-04-29T10:36:59;15.90;99.90
7720;DHT22;3902;49.474;8.616;2023-04-29T10:39:30;15.90;99.90
7720;DHT22;3902;49.474;8.616;2023-04-29T10:42:01;15.90;99.90
7720;DHT22;3902;49.474;8.616;2023-04-29T10:44:29;15.90;99.90
7720;DHT22;3902;49.474;8.616;2023-04-29T10:47:21;15.90;99.90
7720;DHT22;3902;49.474;8.616;2023-04-29T10:50:01;15.90;99.90
7720;DHT22;3902;49.474;8.616;2023-04-29T10:52:28;15.90;99.90
7720;DHT22;3902;49.474;8.616;2023-04-29T10:55:03;15.90;99.90
7720;DHT22;3902;49.474;8.616;2023-04-29T10:57:29;16.00;99.90
7720;DHT22;3902;49.474;8.616;2023-04-29T10:59:54;16.10;99.90
7720;DHT22;3902;49.474;8.616;2023-04-29T11:02:20;16.30;99.90
7720;DHT22;3902;49.474;8.616;2023-04-29T11:05:05;16.40;99.90
7720;DHT22;3902;49.474;8.616;2023-04-29T11:07:31;16.60;99.90
7720;DHT22;3902;49.474;8.616;2023-04-29T11:09:56;16.80;99.90
7720;DHT22;3902;49.474;8.616;2023-04-29T11:12:22;17.10;99.90
7720;DHT22;3902;49.474;8.616;2023-04-29T11:14:51;17.30;99.90
7720;DHT22;3902;49.474;8.616;2023-04-29T11:17:17;17.60;99.90
7720;DHT22;3902;49.474;8.616;2023-04-29T11:19:48;17.80;99.90
7720;DHT22;3902;49.474;8.616;2023-04-29T11:25:02;18.20;99.90
7720;DHT22;3902;49.474;8.616;2023-04-29T11:27:33;18.30;99.90
7720;DHT22;3902;49.474;8.616;2023-04-29T11:30:00;18.30;99.90
7720;DHT22;3902;49.474;8.616;2023-04-29T11:32:31;18.10;99.90
7720;DHT22;3902;49.474;8.616;2023-04-29T11:35:09;18.00;99.90
7720;DHT22;3902;49.474;8.616;2023-04-29T11:37:35;17.90;99.90
7720;DHT22;3902;49.474;8.616;2023-04-29T11:40:01;17.60;99.90
7720;DHT22;3902;49.474;8.616;2023-04-29T11:42:27;17.50;99.90
7720;DHT22;3902;49.474;8.616;2023-04-29T11:44:56;17.40;99.90
7720;DHT22;3902;49.474;8.616;2023-04-29T11:47:28;17.10;99.90
7720;DHT22;3902;49.474;8.616;2023-04-29T11:50:01;17.00;99.90
7720;DHT22;3902;49.474;8.616;2023-04-29T11:52:27;16.80;99.90
7720;DHT22;3902;49.474;8.616;2023-04-29T11:54:53;16.80;99.90
7720;DHT22;3902;49.474;8.616;2023-04-29T11:57:19;16.80;99.90
7720;DHT22;3902;49.474;8.616;2023-04-29T11:59:45;16.80;99.90
7720;DHT22;3902;49.474;8.616;2023-04-29T12:02:11;16.80;99.90
7720;DHT22;3902;49.474;8.616;2023-04-29T12:04:47;16.80;99.90
7720;DHT22;3902;49.474;8.616;2023-04-29T12:07:16;16.80;99.90
7720;DHT22;3902;49.474;8.616;2023-04-29T12:09:43;16.80;99.90
7720;DHT22;3902;49.474;8.616;2023-04-29T12:12:09;16.90;99.90
7720;DHT22;3902;49.474;8.616;2023-04-29T12:14:35;17.00;99.90
7720;DHT22;3902;49.474;8.616;2023-04-29T12:17:01;17.10;99.90
7720;DHT22;3902;49.474;8.616;2023-04-29T12:19:27;17.20;99.90
7720;DHT22;3902;49.474;8.616;2023-04-29T12:21:52;17.30;99.90
7720;DHT22;3902;49.474;8.616;2023-04-29T12:24:20;17.30;99.90
7720;DHT22;3902;49.474;8.616;2023-04-29T12:26:45;17.40;99.90
7720;DHT22;3902;49.474;8.616;2023-04-29T12:29:12;17.40;99.90
7720;DHT22;3902;49.474;8.616;2023-04-29T12:31:37;17.50;99.90
7720;DHT22;3902;49.474;8.616;2023-04-29T12:34:03;17.50;99.90
7720;DHT22;3902;49.474;8.616;2023-04-29T12:36:30;17.60;99.90
7720;DHT22;3902;49.474;8.616;2023-04-29T12:38:55;17.50;99.90
7720;DHT22;3902;49.474;8.616;2023-04-29T12:44:01;17.40;99.90
7720;DHT22;3902;49.474;8.616;2023-04-29T12:46:33;17.40;99.90
7720;DHT22;3902;49.474;8.616;2023-04-29T12:49:01;17.40;99.90
7720;DHT22;3902;49.474;8.616;2023-04-29T12:51:31;17.30;99.90
7720;DHT22;3902;49.474;8.616;2023-04-29T12:54:01;17.40;99.90
7720;DHT22;3902;49.474;8.616;2023-04-29T12:56:31;17.40;99.90
7720;DHT22;3902;49.474;8.616;2023-04-29T12:59:04;17.20;99.90
7720;DHT22;3902;49.474;8.616;2023-04-29T13:01:30;17.30;99.90
7720;DHT22;3902;49.474;8.616;2023-04-29T13:03:56;17.30;99.90
7720;DHT22;3902;49.474;8.616;2023-04-29T13:06:22;17.30;99.90
7720;DHT22;3902;49.474;8.616;2023-04-29T13:08:47;17.40;99.90
7720;DHT22;3902;49.474;8.616;2023-04-29T13:11:13;17.50;99.90
7720;DHT22;3902;49.474;8.616;2023-04-29T13:13:38;17.50;99.90
7720;DHT22;3902;49.474;8.616;2023-04-29T13:16:05;17.60;99.90
7720;DHT22;3902;49.474;8.616;2023-04-29T13:18:30;17.50;99.90
7720;DHT22;3902;49.474;8.616;2023-04-29T13:20:56;17.50;99.90
7720;DHT22;3902;49.474;8.616;2023-04-29T13:23:22;17.40;99.90
7720;DHT22;3902;49.474;8.616;2023-04-29T13:25:49;17.30;99.90
7720;DHT22;3902;49.474;8.616;2023-04-29T13:28:15;17.30;99.90
7720;DHT22;3902;49.474;8.616;2023-04-29T13:30:40;17.30;99.90
7720;DHT22;3902;49.474;8.616;2023-04-29T13:33:06;17.40;99.90
7720;DHT22;3902;49.474;8.616;2023-04-29T13:35:31;17.30;99.90
7720;DHT22;3902;49.474;8.616;2023-04-29T13:38:00;17.30;99.90
7720;DHT22;3902;49.474;8.616;2023-04-29T13:40:26;17.20;99.90
7720;DHT22;3902;49.474;8.616;2023-04-29T13:42:52;17.00;99.90
7720;DHT22;3902;49.474;8.616;2023-04-29T13:45:17;17.00;99.90
7720;DHT22;3902;49.474;8.616;2023-04-29T13:47:43;17.10;99.90
7720;DHT22;3902;49.474;8.616;2023-04-29T13:50:09;17.10;99.90
7720;DHT22;3902;49.474;8.616;2023-04-29T13:52:35;17.10;99.90
7720;DHT22;3902;49.474;8.616;2023-04-29T13:55:00;17.10;99.90
7720;DHT22;3902;49.474;8.616;2023-04-29T13:57:26;17.00;99.90
7720;DHT22;3902;49.474;8.616;2023-04-29T13:59:52;17.10;99.90
7720;DHT22;3902;49.474;8.616;2023-04-29T14:02:19;17.10;99.90
7720;DHT22;3902;49.474;8.616;2023-04-29T14:04:45;17.10;99.90
7720;DHT22;3902;49.474;8.616;2023-04-29T14:07:12;16.90;99.90
7720;DHT22;3902;49.474;8.616;2023-04-29T14:09:38;16.90;99.90
7720;DHT22;3902;49.474;8.616;2023-04-29T14:12:04;16.90;99.90
7720;DHT22;3902;49.474;8.616;2023-04-29T14:14:30;16.90;99.90
7720;DHT22;3902;49.474;8.616;2023-04-29T14:16:55;17.00;99.90
7720;DHT22;3902;49.474;8.616;2023-04-29T14:19:21;17.10;99.90
7720;DHT22;3902;49.474;8.616;2023-04-29T14:21:46;17.10;99.90
7720;DHT22;3902;49.474;8.616;2023-04-29T14:24:12;17.20;99.90
7720;DHT22;3902;49.474;8.616;2023-04-29T14:26:37;17.20;99.90
7720;DHT22;3902;49.474;8.616;2023-04-29T14:29:03;17.20;99.90
7720;DHT22;3902;49.474;8.616;2023-04-29T14:31:30;17.20;99.90
7720;DHT22;3902;49.474;8.616;2023-04-29T14:33:57;17.20;99.90
7720;DHT22;3902;49.474;8.616;2023-04-29T14:36:24;17.20;99.90
7720;DHT22;3902;49.474;8.616;2023-04-29T14:38:50;17.20;99.90
7720;DHT22;3902;49.474;8.616;2023-04-29T14:41:16;17.30;99.90
7720;DHT22;3902;49.474;8.616;2023-04-29T14:43:42;17.40;99.90
7720;DHT22;3902;49.474;8.616;2023-04-29T14:46:08;17.60;99.90
7720;DHT22;3902;49.474;8.616;2023-04-29T14:48:34;17.80;99.90
7720;DHT22;3902;49.474;8.616;2023-04-29T14:50:59;17.90;99.90
7720;DHT22;3902;49.474;8.616;2023-04-29T14:53:25;18.00;99.90
7720;DHT22;3902;49.474;8.616;2023-04-29T14:55:50;18.20;99.90
7720;DHT22;3902;49.474;8.616;2023-04-29T14:58:16;18.20;99.90
7720;DHT22;3902;49.474;8.616;2023-04-29T15:00:41;18.20;99.90
7720;DHT22;3902;49.474;8.616;2023-04-29T15:03:07;18.20;99.90
7720;DHT22;3902;49.474;8.616;2023-04-29T15:05:33;18.30;99.90
7720;DHT22;3902;49.474;8.616;2023-04-29T15:07:59;18.30;99.90
7720;DHT22;3902;49.474;8.616;2023-04-29T15:10:28;18.10;99.90
7720;DHT22;3902;49.474;8.616;2023-04-29T15:12:54;18.00;99.90
7720;DHT22;3902;49.474;8.616;2023-04-29T15:15:21;17.90;99.90
7720;DHT22;3902;49.474;8.616;2023-04-29T15:17:47;17.90;99.90
7720;DHT22;3902;49.474;8.616;2023-04-29T15:20:12;17.70;99.90
7720;DHT22;3902;49.474;8.616;2023-04-29T15:22:38;17.70;99.90
7720;DHT22;3902;49.474;8.616;2023-04-29T15:25:04;17.70;99.90
7720;DHT22;3902;49.474;8.616;2023-04-29T15:27:30;17.60;99.90
7720;DHT22;3902;49.474;8.616;2023-04-29T15:29:56;17.60;99.90
7720;DHT22;3902;49.474;8.616;2023-04-29T15:32:22;17.60;99.90
7720;DHT22;3902;49.474;8.616;2023-04-29T15:34:49;17.70;99.90
7720;DHT22;3902;49.474;8.616;2023-04-29T15:37:14;17.70;99.90
7720;DHT22;3902;49.474;8.616;2023-04-29T15:39:40;17.70;99.90
7720;DHT22;3902;49.474;8.616;2023-04-29T15:42:05;17.70;99.90
7720;DHT22;3902;49.474;8.616;2023-04-29T15:44:31;17.70;99.90
7720;DHT22;3902;49.474;8.616;2023-04-29T15:46:57;17.70;99.90
7720;DHT22;3902;49.474;8.616;2023-04-29T15:49:23;17.60;99.90
7720;DHT22;3902;49.474;8.616;2023-04-29T15:51:49;17.50;99.90
7720;DHT22;3902;49.474;8.616;2023-04-29T15:54:15;17.50;99.90
7720;DHT22;3902;49.474;8.616;2023-04-29T15:56:41;17.40;99.90
7720;DHT22;3902;49.474;8.616;2023-04-29T15:59:06;17.30;99.90
7720;DHT22;3902;49.474;8.616;2023-04-29T16:01:32;17.20;99.90
7720;DHT22;3902;49.474;8.616;2023-04-29T16:03:58;17.20;99.90
7720;DHT22;3902;49.474;8.616;2023-04-29T16:06:23;17.20;99.90
7720;DHT22;3902;49.474;8.616;2023-04-29T16:08:49;17.00;99.90
7720;DHT22;3902;49.474;8.616;2023-04-29T16:11:14;17.00;99.90
7720;DHT22;3902;49.474;8.616;2023-04-29T16:13:40;16.90;99.90
7720;DHT22;3902;49.474;8.616;2023-04-29T16:16:06;16.90;99.90
7720;DHT22;3902;49.474;8.616;2023-04-29T16:18:31;16.90;99.90